<?xml version="1.0" encoding="UTF-8" standalone="no" ?>
<gpx xmlns="http://www.topografix.com/GPX/1/1" creator="www.plotaroute.com" version="1.1"  xmlns:xsi="http://www.w3.org/2001/XMLSchema-instance" xsi:schemaLocation="http://www.topografix.com/GPX/1/1 http://www.topografix.com/GPX/1/1/gpx.xsd">
<metadata>
<desc>Route created on plotaroute.com</desc>
</metadata>
<trk>
<name>Hunstanton to Snettisham Walk</name>
<trkseg>
<trkpt lat="52.940367" lon="0.486222">
<ele>6</ele>
<time>2026-05-08T00:00:00Z</time></trkpt>
<trkpt lat="52.940367" lon="0.486222">
<ele>6</ele>
<time>2026-05-08T00:00:00Z</time></trkpt>
<trkpt lat="52.940049" lon="0.486133">
<ele>5</ele>
<time>2026-05-08T00:00:25Z</time></trkpt>
<trkpt lat="52.939743" lon="0.485985">
<ele>6</ele>
<time>2026-05-08T00:00:49Z</time></trkpt>
<trkpt lat="52.939483" lon="0.485873">
<ele>5</ele>
<time>2026-05-08T00:01:10Z</time></trkpt>
<trkpt lat="52.93899" lon="0.485614">
<ele>6</ele>
<time>2026-05-08T00:01:52Z</time></trkpt>
<trkpt lat="52.93874" lon="0.485444">
<ele>5</ele>
<time>2026-05-08T00:02:13Z</time></trkpt>
<trkpt lat="52.937663" lon="0.484871">
<ele>4</ele>
<time>2026-05-08T00:03:42Z</time></trkpt>
<trkpt lat="52.937048" lon="0.484517">
<ele>5</ele>
<time>2026-05-08T00:04:36Z</time></trkpt>
<trkpt lat="52.937048" lon="0.484517">
<ele>5</ele>
<time>2026-05-08T00:04:36Z</time></trkpt>
<trkpt lat="52.936521" lon="0.484189">
<ele>5</ele>
<time>2026-05-08T00:05:25Z</time></trkpt>
<trkpt lat="52.935906" lon="0.483673">
<ele>4</ele>
<time>2026-05-08T00:06:18Z</time></trkpt>
<trkpt lat="52.934598" lon="0.482424">
<ele>4</ele>
<time>2026-05-08T00:08:18Z</time></trkpt>
<trkpt lat="52.932566" lon="0.480551">
<ele>4</ele>
<time>2026-05-08T00:11:28Z</time></trkpt>
<trkpt lat="52.932566" lon="0.480551">
<ele>4</ele>
<time>2026-05-08T00:11:28Z</time></trkpt>
<trkpt lat="52.931492" lon="0.47956">
<ele>5</ele>
<time>2026-05-08T00:13:08Z</time></trkpt>
<trkpt lat="52.931335" lon="0.479474">
<ele>5</ele>
<time>2026-05-08T00:13:21Z</time></trkpt>
<trkpt lat="52.931335" lon="0.479474">
<ele>5</ele>
<time>2026-05-08T00:13:21Z</time></trkpt>
<trkpt lat="52.928775" lon="0.478677">
<ele>4</ele>
<time>2026-05-08T00:16:49Z</time></trkpt>
<trkpt lat="52.928775" lon="0.478677">
<ele>4</ele>
<time>2026-05-08T00:16:49Z</time></trkpt>
<trkpt lat="52.927854" lon="0.478381">
<ele>4</ele>
<time>2026-05-08T00:18:07Z</time></trkpt>
<trkpt lat="52.927528" lon="0.478233">
<ele>4</ele>
<time>2026-05-08T00:18:34Z</time></trkpt>
<trkpt lat="52.925088" lon="0.476919">
<ele>4</ele>
<time>2026-05-08T00:22:03Z</time></trkpt>
<trkpt lat="52.924716" lon="0.47678">
<ele>3</ele>
<time>2026-05-08T00:22:33Z</time></trkpt>
<trkpt lat="52.924716" lon="0.47678">
<ele>3</ele>
<time>2026-05-08T00:22:33Z</time></trkpt>
<trkpt lat="52.923462" lon="0.47646">
<ele>4</ele>
<time>2026-05-08T00:24:15Z</time></trkpt>
<trkpt lat="52.923462" lon="0.47646">
<ele>4</ele>
<time>2026-05-08T00:24:15Z</time></trkpt>
<trkpt lat="52.921748" lon="0.476039">
<ele>4</ele>
<time>2026-05-08T00:26:33Z</time></trkpt>
<trkpt lat="52.921366" lon="0.475977">
<ele>4</ele>
<time>2026-05-08T00:27:04Z</time></trkpt>
<trkpt lat="52.921003" lon="0.475961">
<ele>4</ele>
<time>2026-05-08T00:27:33Z</time></trkpt>
<trkpt lat="52.919597" lon="0.475979">
<ele>4</ele>
<time>2026-05-08T00:29:31Z</time></trkpt>
<trkpt lat="52.919145" lon="0.475941">
<ele>4</ele>
<time>2026-05-08T00:30:07Z</time></trkpt>
<trkpt lat="52.918679" lon="0.475852">
<ele>5</ele>
<time>2026-05-08T00:30:45Z</time></trkpt>
<trkpt lat="52.917748" lon="0.4756">
<ele>5</ele>
<time>2026-05-08T00:32:00Z</time></trkpt>
<trkpt lat="52.917153" lon="0.475408">
<ele>5</ele>
<time>2026-05-08T00:32:49Z</time></trkpt>
<trkpt lat="52.917153" lon="0.475408">
<ele>5</ele>
<time>2026-05-08T00:32:49Z</time></trkpt>
<trkpt lat="52.91691" lon="0.47531">
<ele>5</ele>
<time>2026-05-08T00:33:09Z</time></trkpt>
<trkpt lat="52.91638" lon="0.475038">
<ele>5</ele>
<time>2026-05-08T00:33:53Z</time></trkpt>
<trkpt lat="52.916016" lon="0.474795">
<ele>5</ele>
<time>2026-05-08T00:34:25Z</time></trkpt>
<trkpt lat="52.914334" lon="0.473545">
<ele>4</ele>
<time>2026-05-08T00:36:50Z</time></trkpt>
<trkpt lat="52.913706" lon="0.473137">
<ele>4</ele>
<time>2026-05-08T00:37:44Z</time></trkpt>
<trkpt lat="52.913145" lon="0.47282">
<ele>5</ele>
<time>2026-05-08T00:38:35Z</time></trkpt>
<trkpt lat="52.912531" lon="0.472771">
<ele>5</ele>
<time>2026-05-08T00:39:26Z</time></trkpt>
<trkpt lat="52.912531" lon="0.472771">
<ele>5</ele>
<time>2026-05-08T00:39:26Z</time></trkpt>
<trkpt lat="52.911766" lon="0.472569">
<ele>5</ele>
<time>2026-05-08T00:40:28Z</time></trkpt>
<trkpt lat="52.9114" lon="0.472519">
<ele>5</ele>
<time>2026-05-08T00:41:00Z</time></trkpt>
<trkpt lat="52.910485" lon="0.472456">
<ele>6</ele>
<time>2026-05-08T00:42:15Z</time></trkpt>
<trkpt lat="52.909235" lon="0.472276">
<ele>5</ele>
<time>2026-05-08T00:43:55Z</time></trkpt>
<trkpt lat="52.909008" lon="0.472263">
<ele>5</ele>
<time>2026-05-08T00:44:13Z</time></trkpt>
<trkpt lat="52.90889" lon="0.472261">
<ele>6</ele>
<time>2026-05-08T00:44:23Z</time></trkpt>
<trkpt lat="52.908877" lon="0.472216">
<ele>6</ele>
<time>2026-05-08T00:44:25Z</time></trkpt>
<trkpt lat="52.908757" lon="0.472124">
<ele>5</ele>
<time>2026-05-08T00:44:36Z</time></trkpt>
<trkpt lat="52.9083" lon="0.471949">
<ele>6</ele>
<time>2026-05-08T00:45:13Z</time></trkpt>
<trkpt lat="52.906386" lon="0.470817">
<ele>5</ele>
<time>2026-05-08T00:47:56Z</time></trkpt>
<trkpt lat="52.9006839" lon="0.4671764">
<ele>6</ele>
<time>2026-05-08T00:56:14Z</time></trkpt>
<trkpt lat="52.8976809" lon="0.4654813">
<ele>7</ele>
<time>2026-05-08T01:00:31Z</time></trkpt>
<trkpt lat="52.8960499" lon="0.4644513">
<ele>7</ele>
<time>2026-05-08T01:02:51Z</time></trkpt>
<trkpt lat="52.8910013" lon="0.4602456">
<ele>6</ele>
<time>2026-05-08T01:10:25Z</time></trkpt>
<trkpt lat="52.8869748" lon="0.4560184">
<ele>5</ele>
<time>2026-05-08T01:16:55Z</time></trkpt>
<trkpt lat="52.886958" lon="0.45605">
<ele>5</ele>
<time>2026-05-08T01:16:57Z</time></trkpt>
<trkpt lat="52.886905" lon="0.455972">
<ele>4</ele>
<time>2026-05-08T01:17:04Z</time></trkpt>
<trkpt lat="52.88612" lon="0.455155">
<ele>5</ele>
<time>2026-05-08T01:18:19Z</time></trkpt>
<trkpt lat="52.885812" lon="0.454762">
<ele>5</ele>
<time>2026-05-08T01:18:50Z</time></trkpt>
<trkpt lat="52.884393" lon="0.453478">
<ele>5</ele>
<time>2026-05-08T01:21:00Z</time></trkpt>
<trkpt lat="52.883759" lon="0.452985">
<ele>5</ele>
<time>2026-05-08T01:21:59Z</time></trkpt>
<trkpt lat="52.883399" lon="0.45277">
<ele>5</ele>
<time>2026-05-08T01:22:30Z</time></trkpt>
<trkpt lat="52.882911" lon="0.45256">
<ele>5</ele>
<time>2026-05-08T01:23:12Z</time></trkpt>
<trkpt lat="52.882555" lon="0.452523">
<ele>6</ele>
<time>2026-05-08T01:23:43Z</time></trkpt>
<trkpt lat="52.881836" lon="0.452411">
<ele>5</ele>
<time>2026-05-08T01:24:41Z</time></trkpt>
<trkpt lat="52.881323" lon="0.452269">
<ele>5</ele>
<time>2026-05-08T01:25:22Z</time></trkpt>
<trkpt lat="52.880939" lon="0.452049">
<ele>5</ele>
<time>2026-05-08T01:25:54Z</time></trkpt>
<trkpt lat="52.879919" lon="0.451085">
<ele>5</ele>
<time>2026-05-08T01:27:28Z</time></trkpt>
<trkpt lat="52.879407" lon="0.450593">
<ele>5</ele>
<time>2026-05-08T01:28:16Z</time></trkpt>
<trkpt lat="52.878335" lon="0.449485">
<ele>6</ele>
<time>2026-05-08T01:30:00Z</time></trkpt>
<trkpt lat="52.8772" lon="0.448309">
<ele>6</ele>
<time>2026-05-08T01:31:48Z</time></trkpt>
<trkpt lat="52.877005" lon="0.448038">
<ele>5</ele>
<time>2026-05-08T01:32:08Z</time></trkpt>
<trkpt lat="52.876804" lon="0.447833">
<ele>5</ele>
<time>2026-05-08T01:32:27Z</time></trkpt>
<trkpt lat="52.876804" lon="0.447833">
<ele>5</ele>
<time>2026-05-08T01:32:27Z</time></trkpt>
<trkpt lat="52.876006" lon="0.44713">
<ele>5</ele>
<time>2026-05-08T01:33:37Z</time></trkpt>
<trkpt lat="52.875613" lon="0.446859">
<ele>5</ele>
<time>2026-05-08T01:34:17Z</time></trkpt>
<trkpt lat="52.87514" lon="0.446609">
<ele>5</ele>
<time>2026-05-08T01:35:02Z</time></trkpt>
<trkpt lat="52.874806" lon="0.446418">
<ele>5</ele>
<time>2026-05-08T01:35:30Z</time></trkpt>
<trkpt lat="52.874533" lon="0.446285">
<ele>4</ele>
<time>2026-05-08T01:35:52Z</time></trkpt>
<trkpt lat="52.87428" lon="0.44616">
<ele>5</ele>
<time>2026-05-08T01:36:12Z</time></trkpt>
<trkpt lat="52.87382" lon="0.445989">
<ele>5</ele>
<time>2026-05-08T01:36:50Z</time></trkpt>
<trkpt lat="52.873165" lon="0.445757">
<ele>5</ele>
<time>2026-05-08T01:37:44Z</time></trkpt>
<trkpt lat="52.872837" lon="0.445689">
<ele>5</ele>
<time>2026-05-08T01:38:10Z</time></trkpt>
<trkpt lat="52.87276" lon="0.445684">
<ele>5</ele>
<time>2026-05-08T01:38:16Z</time></trkpt>
<trkpt lat="52.872552" lon="0.445736">
<ele>4</ele>
<time>2026-05-08T01:38:33Z</time></trkpt>
<trkpt lat="52.872319" lon="0.445738">
<ele>4</ele>
<time>2026-05-08T01:38:52Z</time></trkpt>
<trkpt lat="52.872053" lon="0.445688">
<ele>5</ele>
<time>2026-05-08T01:39:13Z</time></trkpt>
<trkpt lat="52.871365" lon="0.445358">
<ele>6</ele>
<time>2026-05-08T01:40:11Z</time></trkpt>
<trkpt lat="52.870958" lon="0.445201">
<ele>5</ele>
<time>2026-05-08T01:40:46Z</time></trkpt>
<trkpt lat="52.870929" lon="0.445125">
<ele>5</ele>
<time>2026-05-08T01:40:51Z</time></trkpt>
<trkpt lat="52.870806" lon="0.445039">
<ele>6</ele>
<time>2026-05-08T01:41:03Z</time></trkpt>
<trkpt lat="52.869829" lon="0.444767">
<ele>5</ele>
<time>2026-05-08T01:42:24Z</time></trkpt>
<trkpt lat="52.869572" lon="0.444694">
<ele>5</ele>
<time>2026-05-08T01:42:44Z</time></trkpt>
<trkpt lat="52.869311" lon="0.444667">
<ele>5</ele>
<time>2026-05-08T01:43:05Z</time></trkpt>
<trkpt lat="52.869079" lon="0.444707">
<ele>5</ele>
<time>2026-05-08T01:43:23Z</time></trkpt>
<trkpt lat="52.869079" lon="0.444707">
<ele>5</ele>
<time>2026-05-08T01:43:23Z</time></trkpt>
<trkpt lat="52.868825" lon="0.444796">
<ele>5</ele>
<time>2026-05-08T01:43:43Z</time></trkpt>
<trkpt lat="52.868254" lon="0.445115">
<ele>5</ele>
<time>2026-05-08T01:44:31Z</time></trkpt>
<trkpt lat="52.868098" lon="0.445201">
<ele>5</ele>
<time>2026-05-08T01:44:44Z</time></trkpt>
<trkpt lat="52.867783" lon="0.445479">
<ele>5</ele>
<time>2026-05-08T01:45:13Z</time></trkpt>
<trkpt lat="52.867452" lon="0.445657">
<ele>5</ele>
<time>2026-05-08T01:45:41Z</time></trkpt>
<trkpt lat="52.866729" lon="0.446069">
<ele>5</ele>
<time>2026-05-08T01:46:42Z</time></trkpt>
<trkpt lat="52.866229" lon="0.446228">
<ele>5</ele>
<time>2026-05-08T01:47:23Z</time></trkpt>
<trkpt lat="52.865691" lon="0.446251">
<ele>5</ele>
<time>2026-05-08T01:48:05Z</time></trkpt>
<trkpt lat="52.865223" lon="0.446223">
<ele>4</ele>
<time>2026-05-08T01:48:42Z</time></trkpt>
<trkpt lat="52.864258" lon="0.446205">
<ele>4</ele>
<time>2026-05-08T01:49:59Z</time></trkpt>
<trkpt lat="52.864258" lon="0.446205">
<ele>4</ele>
<time>2026-05-08T01:49:59Z</time></trkpt>
<trkpt lat="52.861534" lon="0.446156">
<ele>5</ele>
<time>2026-05-08T01:53:42Z</time></trkpt>
<trkpt lat="52.861071" lon="0.446186">
<ele>5</ele>
<time>2026-05-08T01:54:19Z</time></trkpt>
<trkpt lat="52.860343" lon="0.446286">
<ele>4</ele>
<time>2026-05-08T01:55:18Z</time></trkpt>
<trkpt lat="52.860343" lon="0.446286">
<ele>4</ele>
<time>2026-05-08T01:55:18Z</time></trkpt>
<trkpt lat="52.860169" lon="0.446344">
<ele>5</ele>
<time>2026-05-08T01:55:32Z</time></trkpt>
<trkpt lat="52.85957" lon="0.446463">
<ele>4</ele>
<time>2026-05-08T01:56:19Z</time></trkpt>
<trkpt lat="52.857513" lon="0.446617">
<ele>5</ele>
<time>2026-05-08T01:59:10Z</time></trkpt>
<trkpt lat="52.857192" lon="0.44665">
<ele>6</ele>
<time>2026-05-08T01:59:38Z</time></trkpt>
<trkpt lat="52.856831" lon="0.446587">
<ele>5</ele>
<time>2026-05-08T02:00:09Z</time></trkpt>
<trkpt lat="52.855979" lon="0.446641">
<ele>5</ele>
<time>2026-05-08T02:01:15Z</time></trkpt>
<trkpt lat="52.855787" lon="0.446634">
<ele>5</ele>
<time>2026-05-08T02:01:31Z</time></trkpt>
<trkpt lat="52.854856" lon="0.446451">
<ele>5</ele>
<time>2026-05-08T02:02:49Z</time></trkpt>
<trkpt lat="52.854774" lon="0.446457">
<ele>5</ele>
<time>2026-05-08T02:02:56Z</time></trkpt>
<trkpt lat="52.854664" lon="0.446452">
<ele>5</ele>
<time>2026-05-08T02:03:06Z</time></trkpt>
<trkpt lat="52.85412" lon="0.446222">
<ele>5</ele>
<time>2026-05-08T02:03:52Z</time></trkpt>
<trkpt lat="52.853909" lon="0.446163">
<ele>6</ele>
<time>2026-05-08T02:04:09Z</time></trkpt>
<trkpt lat="52.853754" lon="0.446114">
<ele>6</ele>
<time>2026-05-08T02:04:21Z</time></trkpt>
<trkpt lat="52.853696" lon="0.446098">
<ele>6</ele>
<time>2026-05-08T02:04:26Z</time></trkpt>
<trkpt lat="52.853696" lon="0.446098">
<ele>6</ele>
<time>2026-05-08T02:04:26Z</time></trkpt>
<trkpt lat="52.853625" lon="0.446073">
<ele>6</ele>
<time>2026-05-08T02:04:31Z</time></trkpt>
<trkpt lat="52.852696" lon="0.445778">
<ele>5</ele>
<time>2026-05-08T02:05:45Z</time></trkpt>
<trkpt lat="52.852197" lon="0.445663">
<ele>4</ele>
<time>2026-05-08T02:06:26Z</time></trkpt>
</trkseg>
</trk>
</gpx>